South Lyme, CT (06376)

1:36 AM EDT on March 28, 2017 (GMT -0400)
Giants Neck Beach | | Change Station
Active Advisory: Dense Fog Advisory

Elev 78 ft 41.30 °N, 72.23 °W | Updated 3 minutes ago

Overcast
Overcast
40.0 °F
Feels Like 36 °F
N
5.0
Wind Variable Wind from NE
Gusts 9.0 mph

Today
High -- | Low -- °F
--% Chance of Precip.
Yesterday
High -- | Low -- °F
Precip. -- in
Pressure 30.02 in
Visibility 5.0 miles
Clouds Overcast 300 ft
Windchill 36 °F
Dew Point 40 °F
Humidity 99%
Rainfall 0.00 in
Snow Depth Not available.
6:38 AM 7:10 PM
New Moon, 0% visible
METAR KGON 280456Z AUTO 36006KT 5SM BR OVC003 06/05 A3002 RMK AO2 SLP166 T00610050 401170022
Pressure 30.02 in
Visibility 5.0 miles
Clouds Overcast 300 ft
Windchill 36 °F
Dew Point 40 °F
Humidity 99%
Rainfall 0.00 in
Snow Depth Not available.
6:38 AM 7:10 PM
New Moon, 0% visible
METAR KGON 280456Z AUTO 36006KT 5SM BR OVC003 06/05 A3002 RMK AO2 SLP166 T00610050 401170022

Get Your Daily Forecast Email!

Thanks for signing up!

Be on the lookout for a verification email in your inbox.

You'll start receiving severe weather alerts in your inbox..

×

10-Day Weather Forecast

Almanac

Astronomy

Mar. 28, 2017 Rise Set
Actual Time
Civil Twilight
Nautical Twilight
Astronomical Twilight
Moon
Length of Visible Light
Length of Day
Tomorrow will be .
, % of the Moon is Illuminated

Today's Extremes

State Highs State Lows

Community

WunderPhotos

Upload Photos

1,962,540 photos uploaded!

WunderBlog® & News

Nearby

Air Quality

  Air Quality AQ Index Pollutant
Not available.

Snow Depth

Station Depth Elevation

Earthquake Activity

City Distance Mag. Time & Date
Minimum magnitude displayed is 2.5.

Earthquake Activity

City Distance Mag. Time & Date
Minimum magnitude displayed is 2.5.

Coastal Water Temperatures

Place Temperature

Stations

Nearby Weather Stations

Station Location Temp. Windchill Dew Point Humidity Wind Precip. Elev Updated Type
                   

Watches & Warnings

Dense Fog Advisory
Issued: 3:49 PM EDT Mar. 27, 2017 – National Weather Service

... Dense fog advisory in effect from midnight tonight to noon EDT
Tuesday...

The National Weather Service in Upton has issued a dense fog
advisory, which is in effect from midnight tonight to noon EDT
Tuesday.

* Visibilities... one quarter mile or less at times.

* Timing... late tonight into Tuesday morning.

* Impacts... limited visibilities could make travel difficult.

Precautionary/preparedness actions...

A dense fog advisory means visibilities will frequently be
reduced to one quarter mile or less. If driving... slow down... use
your low beam headlights... and leave plenty of distance ahead of
you in case a sudden stop is needed.